Time;durP1;ratioP1;P1;durP2;ratioP2;P2;SDS_P1;SDS_P2;PMS_P1;PMS_P2;Temp;Humidity;BMP_temperature;BMP_pressure;BME280_temperature;BME280_humidity;BME280_pressure;Samples;Min_cycle;Max_cycle;Signal;HPM_P1;HPM_P2
2023/09/16 00:02:24;;;;;;;16.08;13.57;;;;;;;11.69;100.00;101288.59;5049930;28;20028;-75
2023/09/16 00:04:51;;;;;;;14.70;13.20;;;;;;;11.65;100.00;101282.75;5039034;28;20033;-74
2023/09/16 00:07:16;;;;;;;16.73;14.13;;;;;;;11.66;100.00;101286.28;5040359;28;20025;-74
2023/09/16 00:09:42;;;;;;;14.98;13.43;;;;;;;11.64;100.00;101281.09;5051539;28;20037;-75
2023/09/16 00:12:08;;;;;;;15.77;14.07;;;;;;;11.64;100.00;101286.50;5048511;28;20039;-75
2023/09/16 00:14:36;;;;;;;14.88;13.27;;;;;;;11.62;100.00;101288.53;5048750;28;20044;-74
2023/09/16 00:17:03;;;;;;;15.65;13.93;;;;;;;11.61;100.00;101289.56;5050212;28;20116;-74
2023/09/16 00:19:30;;;;;;;16.83;15.13;;;;;;;11.61;100.00;101292.25;5050750;28;20027;-75
2023/09/16 00:21:57;;;;;;;18.17;15.20;;;;;;;11.62;100.00;101293.94;5048692;28;20021;-74
2023/09/16 00:24:23;;;;;;;17.90;16.00;;;;;;;11.59;100.00;101288.94;5048308;28;20025;-75
2023/09/16 00:26:51;;;;;;;17.05;14.82;;;;;;;11.60;100.00;101285.19;5048940;28;20469;-74
2023/09/16 00:29:16;;;;;;;15.63;13.15;;;;;;;11.63;100.00;101282.13;5047812;28;20041;-75
2023/09/16 00:31:42;;;;;;;16.80;15.00;;;;;;;11.63;100.00;101283.97;5049732;28;20025;-75
2023/09/16 00:34:07;;;;;;;16.52;14.77;;;;;;;11.64;100.00;101280.25;5064074;22;20044;-75
2023/09/16 00:36:33;;;;;;;18.15;15.45;;;;;;;11.63;100.00;101273.19;5059465;28;20028;-75
2023/09/16 00:38:59;;;;;;;17.10;15.15;;;;;;;11.63;100.00;101286.66;5065695;28;20016;-75
2023/09/16 00:41:25;;;;;;;16.05;14.40;;;;;;;11.60;100.00;101281.66;5068411;28;20756;-74
2023/09/16 00:43:51;;;;;;;16.20;14.27;;;;;;;11.62;100.00;101283.16;5084461;28;20017;-74
2023/09/16 00:46:16;;;;;;;16.35;14.65;;;;;;;11.61;100.00;101286.03;5087045;28;20026;-73
2023/09/16 00:48:45;;;;;;;16.55;14.73;;;;;;;11.58;100.00;101281.00;5076439;28;20025;-73
2023/09/16 00:51:10;;;;;;;17.08;15.27;;;;;;;11.56;100.00;101273.13;5074694;28;20028;-74
2023/09/16 00:53:35;;;;;;;16.33;14.40;;;;;;;11.55;100.00;101276.03;5043186;28;20142;-74
2023/09/16 00:56:02;;;;;;;16.45;14.63;;;;;;;11.53;100.00;101274.34;5053651;28;20017;-74
2023/09/16 00:58:27;;;;;;;17.35;15.52;;;;;;;11.54;100.00;101267.09;5066461;28;20377;-74
2023/09/16 01:00:53;;;;;;;16.60;14.80;;;;;;;11.50;100.00;101263.94;5048869;28;20025;-75
2023/09/16 01:03:22;;;;;;;14.88;13.38;;;;;;;11.54;100.00;101261.69;5071477;28;20032;-74
2023/09/16 01:05:47;;;;;;;17.75;15.82;;;;;;;11.55;100.00;101271.47;5056537;28;20020;-74
2023/09/16 01:08:13;;;;;;;16.08;14.38;;;;;;;11.54;100.00;101259.00;5053553;28;20146;-74
2023/09/16 01:10:41;;;;;;;15.60;13.90;;;;;;;11.56;100.00;101262.34;5067833;28;20048;-74
2023/09/16 01:13:07;;;;;;;16.13;14.45;;;;;;;11.57;100.00;101260.47;5069736;28;20041;-73
2023/09/16 01:15:33;;;;;;;17.55;15.68;;;;;;;11.58;100.00;101265.69;5026333;28;20079;-74
2023/09/16 01:18:09;;;;;;;18.70;16.73;;;;;;;11.62;100.00;101272.38;5048704;28;20090;-74
2023/09/16 01:20:38;;;;;;;17.75;16.00;;;;;;;11.62;100.00;101256.19;5056987;28;20041;-74
2023/09/16 01:23:04;;;;;;;17.73;15.77;;;;;;;11.68;100.00;101255.38;5057689;28;20048;-74
2023/09/16 01:25:33;;;;;;;20.05;16.25;;;;;;;11.74;100.00;101258.34;5065939;28;20032;-74
2023/09/16 01:27:58;;;;;;;18.33;16.33;;;;;;;11.76;100.00;101262.50;5071744;28;20025;-74
2023/09/16 01:30:25;;;;;;;18.63;16.63;;;;;;;11.78;100.00;101249.66;5067555;28;20114;-74
2023/09/16 01:33:03;;;;;;;19.25;17.05;;;;;;;11.82;100.00;101252.81;5049105;28;20150;-74
2023/09/16 01:35:32;;;;;;;19.83;16.25;;;;;;;11.82;100.00;101256.34;5068571;28;20567;-74
2023/09/16 01:37:57;;;;;;;16.00;14.23;;;;;;;11.82;100.00;101255.53;5053827;28;20044;-74
2023/09/16 01:40:23;;;;;;;20.42;16.15;;;;;;;11.84;100.00;101256.13;5047414;28;20051;-75
2023/09/16 01:42:49;;;;;;;17.67;15.85;;;;;;;11.85;100.00;101252.41;5055248;28;20098;-74
2023/09/16 01:45:14;;;;;;;16.45;14.00;;;;;;;11.88;100.00;101253.91;5054843;28;20051;-74
2023/09/16 01:47:39;;;;;;;18.45;16.30;;;;;;;11.92;100.00;101253.31;5035937;28;20468;-74
2023/09/16 01:50:05;;;;;;;17.88;15.85;;;;;;;11.99;100.00;101250.69;5064434;28;20033;-75
2023/09/16 01:52:31;;;;;;;17.27;15.48;;;;;;;12.02;100.00;101254.84;5069716;28;20037;-75
2023/09/16 01:54:56;;;;;;;17.13;15.18;;;;;;;12.06;100.00;101243.47;5074421;28;20074;-74
2023/09/16 01:57:21;;;;;;;17.00;15.25;;;;;;;12.13;100.00;101246.22;5072995;28;20028;-74
2023/09/16 01:59:47;;;;;;;18.00;14.32;;;;;;;12.21;100.00;101242.53;5071355;28;20048;-74
2023/09/16 02:02:12;;;;;;;16.70;14.38;;;;;;;12.25;100.00;101243.81;5072237;28;20031;-74
2023/09/16 02:04:43;;;;;;;16.85;14.73;;;;;;;12.30;100.00;101251.31;5070585;28;20032;-74
2023/09/16 02:07:08;;;;;;;15.68;14.00;;;;;;;12.34;100.00;101248.00;5070794;28;20456;-74
2023/09/16 02:09:34;;;;;;;14.98;13.48;;;;;;;12.37;100.00;101241.34;5062195;28;20036;-74
2023/09/16 02:12:02;;;;;;;15.48;13.63;;;;;;;12.40;100.00;101235.56;5064822;28;20024;-74
2023/09/16 02:14:28;;;;;;;15.18;13.57;;;;;;;12.40;100.00;101231.00;5059813;28;20365;-74
2023/09/16 02:16:53;;;;;;;17.73;14.10;;;;;;;12.44;100.00;101236.84;5066751;28;20024;-74
2023/09/16 02:19:18;;;;;;;16.60;13.90;;;;;;;12.48;100.00;101243.50;5071365;28;20039;-74
2023/09/16 02:21:44;;;;;;;17.38;14.45;;;;;;;12.54;100.00;101236.47;5067751;28;20042;-73
2023/09/16 02:24:09;;;;;;;15.25;13.75;;;;;;;12.56;100.00;101235.22;5080673;28;20024;-74
2023/09/16 02:26:34;;;;;;;15.15;13.55;;;;;;;12.59;100.00;101234.84;5074923;28;20028;-74
2023/09/16 02:29:00;;;;;;;15.38;13.77;;;;;;;12.62;100.00;101243.56;5070498;28;20032;-75
2023/09/16 02:31:28;;;;;;;14.90;13.40;;;;;;;12.66;100.00;101239.44;5061602;28;20380;-74
2023/09/16 02:33:57;;;;;;;15.52;13.93;;;;;;;12.71;100.00;101248.59;5066700;28;20029;-74
2023/09/16 02:36:22;;;;;;;14.45;12.95;;;;;;;12.75;100.00;101243.63;5049711;28;20048;-74
2023/09/16 02:38:48;;;;;;;15.02;13.50;;;;;;;12.78;100.00;101243.22;5050394;28;20025;-74
2023/09/16 02:41:17;;;;;;;14.38;12.63;;;;;;;12.82;100.00;101233.69;5049934;28;20035;-74
2023/09/16 02:43:43;;;;;;;13.32;11.90;;;;;;;12.84;100.00;101234.31;5043666;28;20029;-74
2023/09/16 02:46:08;;;;;;;13.30;11.93;;;;;;;12.92;100.00;101244.09;5046797;28;20025;-74
2023/09/16 02:48:34;;;;;;;13.90;12.40;;;;;;;12.96;100.00;101233.72;5041630;28;20032;-74
2023/09/16 02:51:00;;;;;;;13.63;12.23;;;;;;;13.03;100.00;101234.59;5044746;28;20029;-74
2023/09/16 02:53:25;;;;;;;13.10;11.77;;;;;;;13.11;100.00;101239.78;5049914;28;20359;-74
2023/09/16 02:55:50;;;;;;;12.98;11.68;;;;;;;13.19;100.00;101238.75;5048996;28;20388;-74
2023/09/16 02:58:16;;;;;;;13.52;12.13;;;;;;;13.29;100.00;101241.06;5043528;28;20037;-74
2023/09/16 03:00:44;;;;;;;13.35;11.55;;;;;;;13.33;100.00;101228.81;5043752;28;20026;-74
2023/09/16 03:03:09;;;;;;;15.15;11.93;;;;;;;13.35;100.00;101234.84;5042776;28;20121;-74
2023/09/16 03:05:34;;;;;;;13.00;11.55;;;;;;;13.38;100.00;101226.31;5043012;28;20099;-74
2023/09/16 03:08:00;;;;;;;12.90;11.18;;;;;;;13.42;100.00;101232.19;5051276;28;20469;-75
2023/09/16 03:10:25;;;;;;;13.32;11.95;;;;;;;13.43;100.00;101223.84;5047991;28;20029;-75
2023/09/16 03:12:51;;;;;;;12.25;10.90;;;;;;;13.49;100.00;101220.31;5049706;28;20272;-75
2023/09/16 03:15:16;;;;;;;12.48;10.68;;;;;;;13.54;100.00;101222.41;5046799;28;20051;-74
2023/09/16 03:17:41;;;;;;;12.80;11.30;;;;;;;13.58;100.00;101220.13;5049057;28;20408;-74
2023/09/16 03:20:07;;;;;;;12.15;10.77;;;;;;;13.62;100.00;101226.78;5048359;28;20385;-74
2023/09/16 03:22:33;;;;;;;12.15;10.82;;;;;;;13.63;100.00;101218.47;5046108;28;20033;-74
2023/09/16 03:24:58;;;;;;;11.27;10.15;;;;;;;13.62;100.00;101210.53;5038950;28;20029;-74
2023/09/16 03:27:25;;;;;;;14.98;11.27;;;;;;;13.63;100.00;101207.63;5044538;28;20029;-74
2023/09/16 03:29:50;;;;;;;13.05;10.90;;;;;;;13.62;100.00;101214.09;5045677;28;20021;-74
2023/09/16 03:32:15;;;;;;;11.82;10.63;;;;;;;13.63;100.00;101209.50;5050324;28;20495;-74
2023/09/16 03:34:41;;;;;;;11.75;10.55;;;;;;;13.63;100.00;101209.50;5056826;28;20053;-74
2023/09/16 03:37:06;;;;;;;12.35;10.60;;;;;;;13.64;100.00;101203.06;5067312;28;20027;-74
2023/09/16 03:39:32;;;;;;;12.00;10.80;;;;;;;13.66;100.00;101208.28;5065583;28;20028;-74
2023/09/16 03:41:58;;;;;;;11.10;10.00;;;;;;;13.68;100.00;101206.19;5063108;28;20472;-74
2023/09/16 03:44:23;;;;;;;12.02;10.82;;;;;;;13.68;100.00;101198.06;5063084;28;20024;-74
2023/09/16 03:46:48;;;;;;;11.65;10.35;;;;;;;13.62;100.00;101200.56;5070035;28;20098;-74
2023/09/16 03:49:14;;;;;;;11.52;10.32;;;;;;;13.57;100.00;101194.94;5069333;28;20021;-74
2023/09/16 03:51:39;;;;;;;11.23;9.98;;;;;;;13.51;100.00;101193.06;5060554;28;20025;-74
2023/09/16 03:54:06;;;;;;;12.85;11.02;;;;;;;13.45;100.00;101194.72;5046859;28;20040;-76
2023/09/16 03:56:32;;;;;;;12.25;10.85;;;;;;;13.39;100.00;101200.09;5069559;28;20024;-72
2023/09/16 03:58:57;;;;;;;12.98;11.57;;;;;;;13.30;100.00;101191.38;5058494;28;20408;-75
2023/09/16 04:01:23;;;;;;;13.10;11.07;;;;;;;13.19;100.00;101188.25;5069265;28;20028;-75
2023/09/16 04:03:48;;;;;;;12.52;10.95;;;;;;;13.13;100.00;101185.53;5048453;28;20375;-76
2023/09/16 04:06:14;;;;;;;13.73;11.98;;;;;;;13.08;100.00;101183.44;5059681;28;20081;-76
2023/09/16 04:08:40;;;;;;;14.88;12.18;;;;;;;13.07;100.00;101187.16;5057751;28;20025;-75
2023/09/16 04:11:06;;;;;;;12.10;10.80;;;;;;;13.03;100.00;101192.16;5069514;28;20541;-75
2023/09/16 04:13:31;;;;;;;12.63;11.10;;;;;;;13.00;100.00;101184.47;5060383;28;20140;-75
2023/09/16 04:15:57;;;;;;;11.65;10.45;;;;;;;12.91;100.00;101182.16;5063661;28;20021;-76
2023/09/16 04:18:22;;;;;;;17.25;11.45;;;;;;;12.84;100.00;101182.13;5063186;28;20029;-77
2023/09/16 04:20:48;;;;;;;13.05;11.35;;;;;;;12.74;100.00;101186.06;5047339;28;20028;-77
2023/09/16 04:23:16;;;;;;;14.18;12.13;;;;;;;12.70;100.00;101175.88;5064410;28;20059;-76
2023/09/16 04:25:42;;;;;;;15.60;11.90;;;;;;;12.70;100.00;101186.69;5068098;28;20547;-77
2023/09/16 04:28:08;;;;;;;12.32;10.95;;;;;;;12.74;100.00;101183.38;5067486;28;20059;-75
2023/09/16 04:30:39;;;;;;;11.73;10.52;;;;;;;12.77;100.00;101181.31;5064591;28;20178;-75
2023/09/16 04:33:05;;;;;;;13.13;11.50;;;;;;;12.74;100.00;101190.63;5062861;28;20084;-75
2023/09/16 04:35:31;;;;;;;12.45;10.20;;;;;;;12.72;100.00;101190.00;5043182;28;20517;-76
2023/09/16 04:37:56;;;;;;;11.48;10.27;;;;;;;12.72;100.00;101190.00;5045515;28;20032;-76
2023/09/16 04:40:22;;;;;;;14.82;10.25;;;;;;;12.70;100.00;101189.38;5045357;28;20078;-76
2023/09/16 04:42:47;;;;;;;11.95;10.65;;;;;;;12.74;100.00;101190.63;5035060;28;20036;-75
2023/09/16 04:45:15;;;;;;;11.90;10.27;;;;;;;12.78;100.00;101189.19;5042870;28;20025;-76
2023/09/16 04:47:43;;;;;;;11.45;10.25;;;;;;;12.77;100.00;101192.09;5046088;28;20039;-74
2023/09/16 04:50:12;;;;;;;13.05;10.48;;;;;;;12.78;100.00;101194.59;5049407;28;20047;-74
2023/09/16 04:52:37;;;;;;;13.80;10.00;;;;;;;12.78;100.00;101191.06;5042935;28;20064;-74
2023/09/16 04:55:04;;;;;;;15.20;10.32;;;;;;;12.79;100.00;101190.84;5052027;28;20044;-74
2023/09/16 04:57:29;;;;;;;13.10;10.38;;;;;;;12.85;100.00;101190.06;5049055;28;20083;-74
2023/09/16 04:59:55;;;;;;;11.63;10.43;;;;;;;12.85;100.00;101195.47;5048239;28;20021;-74
2023/09/16 05:02:20;;;;;;;10.40;9.30;;;;;;;12.89;100.00;101185.88;5051444;28;20040;-74
2023/09/16 05:04:45;;;;;;;11.80;10.13;;;;;;;12.91;100.00;101198.34;5052588;28;20025;-74
2023/09/16 05:07:11;;;;;;;11.73;9.85;;;;;;;12.88;100.00;101186.91;5056515;28;20031;-74
2023/09/16 05:09:37;;;;;;;11.43;9.77;;;;;;;12.89;100.00;101191.28;5041493;28;20079;-74
2023/09/16 05:12:02;;;;;;;11.05;9.65;;;;;;;12.94;100.00;101192.56;5045434;28;20047;-74
2023/09/16 05:14:28;;;;;;;11.20;10.00;;;;;;;12.95;100.00;101197.78;5053032;28;20060;-74
2023/09/16 05:16:53;;;;;;;11.10;8.98;;;;;;;12.99;100.00;101195.47;5038654;28;20031;-73
2023/09/16 05:19:19;;;;;;;12.57;9.80;;;;;;;13.04;100.00;101187.59;5026996;28;20032;-75
2023/09/16 05:21:44;;;;;;;10.27;8.85;;;;;;;13.11;100.00;101183.03;5049416;28;20040;-75
2023/09/16 05:24:09;;;;;;;10.15;8.82;;;;;;;13.22;100.00;101186.16;5060842;28;20077;-74
2023/09/16 05:26:37;;;;;;;10.52;9.52;;;;;;;13.35;100.00;101183.47;5047588;28;20021;-74
2023/09/16 05:29:02;;;;;;;11.20;8.90;;;;;;;13.46;100.00;101182.88;5054135;28;20499;-74
2023/09/16 05:31:28;;;;;;;10.98;8.93;;;;;;;13.55;100.00;101182.69;5066229;28;20053;-74
2023/09/16 05:33:53;;;;;;;10.43;8.32;;;;;;;13.66;100.00;101190.16;5035924;28;20576;-74
2023/09/16 05:36:20;;;;;;;10.45;8.77;;;;;;;13.73;100.00;101180.16;5048350;28;20032;-74
2023/09/16 05:38:45;;;;;;;9.68;8.23;;;;;;;13.82;100.00;101178.06;5046506;28;20021;-74
2023/09/16 05:41:11;;;;;;;9.98;8.30;;;;;;;13.93;100.00;101177.41;5047602;28;20079;-75
2023/09/16 05:43:36;;;;;;;11.48;7.90;;;;;;;14.05;100.00;101171.34;5040768;28;20475;-74
2023/09/16 05:46:02;;;;;;;9.00;7.70;;;;;;;14.21;100.00;101180.88;5044883;28;20028;-74
2023/09/16 05:48:27;;;;;;;10.27;8.02;;;;;;;14.29;100.00;101183.38;5044198;28;20027;-74
2023/09/16 05:50:59;;;;;;;9.38;7.80;;;;;;;14.37;100.00;101185.84;5050287;28;20025;-74
2023/09/16 05:53:25;;;;;;;8.80;7.90;;;;;;;14.42;100.00;101184.38;5050851;28;20507;-74
2023/09/16 05:55:51;;;;;;;8.65;7.85;;;;;;;14.58;100.00;101180.31;5049402;28;20017;-74
2023/09/16 05:58:17;;;;;;;8.98;7.97;;;;;;;14.77;99.45;101190.25;5048307;28;20469;-74
2023/09/16 06:00:42;;;;;;;8.88;7.80;;;;;;;14.83;97.46;101193.97;5045325;28;20029;-73
2023/09/16 06:03:09;;;;;;;9.50;7.88;;;;;;;15.02;96.79;101194.94;5057415;28;20037;-74
2023/09/16 06:05:37;;;;;;;9.32;7.68;;;;;;;15.24;95.80;101198.09;5062752;28;20074;-74
2023/09/16 06:08:03;;;;;;;8.73;6.97;;;;;;;15.50;94.94;101200.84;5069219;22;20036;-77
2023/09/16 06:10:29;;;;;;;10.02;7.65;;;;;;;15.95;91.48;101199.84;5052666;22;20037;-76
2023/09/16 06:12:55;;;;;;;10.15;7.95;;;;;;;16.42;88.04;101205.56;5048212;28;20037;-76
2023/09/16 06:15:32;;;;;;;8.77;7.10;;;;;;;17.24;84.59;101214.34;5051291;28;20025;-77
2023/09/16 06:17:58;;;;;;;8.27;7.45;;;;;;;17.40;82.04;101218.28;5047719;28;20103;-77
2023/09/16 06:20:46;;;;;;;8.75;7.60;;;;;;;17.44;81.41;101219.47;5048074;28;20068;-75
2023/09/16 06:23:25;;;;;;;9.15;7.50;;;;;;;17.32;81.19;101211.28;5042357;28;20116;-75
2023/09/16 06:25:51;;;;;;;8.65;7.45;;;;;;;17.37;80.81;101222.31;5038484;28;20448;-75
2023/09/16 06:28:16;;;;;;;8.40;7.50;;;;;;;17.32;81.24;101210.47;5101655;22;20554;-75
2023/09/16 06:30:41;;;;;;;11.60;7.63;;;;;;;17.30;81.55;101216.13;5038562;28;20021;-75
2023/09/16 06:33:10;;;;;;;9.00;7.03;;;;;;;17.23;82.14;101216.22;5043977;28;20037;-76
2023/09/16 06:35:36;;;;;;;8.77;7.90;;;;;;;17.21;81.67;101217.53;5055413;22;20049;-75
2023/09/16 06:40:54;;;;;;;8.68;7.63;;;;;;;17.05;83.51;101206.25;5047331;28;20095;-74
2023/09/16 06:43:23;;;;;;;9.05;7.55;;;;;;;17.18;83.95;101207.09;5047789;28;20021;-75
2023/09/16 06:45:49;;;;;;;8.68;7.32;;;;;;;17.48;81.57;101207.06;5051698;28;20045;-75
2023/09/16 06:48:15;;;;;;;8.70;7.03;;;;;;;17.83;80.49;101214.41;5051278;28;20044;-75
2023/09/16 06:50:40;;;;;;;9.02;7.40;;;;;;;17.73;80.31;101214.19;5045379;28;20016;-75
2023/09/16 06:53:06;;;;;;;8.10;7.30;;;;;;;17.70;80.68;101209.22;5045217;28;20078;-74
2023/09/16 06:55:40;;;;;;;8.70;7.75;;;;;;;17.94;79.46;101201.88;5051582;28;20148;-75
2023/09/16 06:58:07;;;;;;;9.07;7.88;;;;;;;18.03;78.27;101208.63;5042631;28;20061;-72
2023/09/16 07:03:32;;;;;;;11.93;8.20;;;;;;;18.27;76.86;101214.06;5112838;22;20140;-75
2023/09/16 07:06:02;;;;;;;8.38;7.60;;;;;;;18.55;75.73;101217.06;5033823;28;20312;-75
2023/09/16 07:08:30;;;;;;;8.30;7.40;;;;;;;18.67;74.73;101217.03;5032301;28;20033;-74
2023/09/16 07:10:58;;;;;;;8.10;7.30;;;;;;;19.37;73.11;101223.25;5028547;28;20085;-74
2023/09/16 07:13:23;;;;;;;9.38;7.30;;;;;;;20.04;69.30;101216.13;5029455;28;20041;-75
2023/09/16 07:15:56;;;;;;;9.68;7.55;;;;;;;20.31;68.92;101223.56;5037733;28;20048;-74
2023/09/16 07:18:22;;;;;;;7.70;6.90;;;;;;;21.48;65.04;101216.88;5040013;28;20160;-76
2023/09/16 07:20:48;;;;;;;7.68;6.22;;;;;;;22.94;59.20;101224.00;5030918;28;20045;-76
2023/09/16 07:23:14;;;;;;;9.90;6.43;;;;;;;23.79;55.11;101230.09;5034638;28;20037;-74
2023/09/16 07:25:39;;;;;;;6.82;6.13;;;;;;;24.36;53.00;101211.53;5030717;28;20336;-75
2023/09/16 07:28:07;;;;;;;7.22;6.28;;;;;;;24.60;52.62;101217.19;5025998;28;20025;-74
2023/09/16 07:30:34;;;;;;;6.65;5.80;;;;;;;24.35;53.86;101215.38;5020799;28;20466;-75
2023/09/16 07:33:00;;;;;;;8.27;6.20;;;;;;;25.26;50.55;101206.84;5023189;28;20032;-75
2023/09/16 07:35:25;;;;;;;8.23;6.05;;;;;;;25.46;48.48;101216.09;5026907;28;20045;-74
2023/09/16 07:40:17;;;;;;;6.72;5.88;;;;;;;26.87;45.86;101217.00;5071337;22;20064;-75
2023/09/16 07:42:43;;;;;;;6.47;5.88;;;;;;;25.60;47.55;101212.66;5067271;28;20021;-76
2023/09/16 07:45:09;;;;;;;7.75;5.78;;;;;;;26.28;46.85;101211.69;5046411;28;20059;-75
2023/09/16 07:47:34;;;;;;;7.47;5.95;;;;;;;27.08;44.49;101214.75;5062693;28;20127;-76
2023/09/16 07:50:01;;;;;;;6.60;6.00;;;;;;;26.03;47.09;101215.53;5065522;28;20047;-76
2023/09/16 07:52:26;;;;;;;8.45;6.03;;;;;;;26.58;46.29;101219.88;5069880;28;20487;-76
2023/09/16 07:54:55;;;;;;;7.78;5.45;;;;;;;26.80;45.24;101221.25;5067476;28;20060;-76
2023/09/16 07:57:21;;;;;;;6.68;5.70;;;;;;;26.84;44.88;101223.13;5068456;28;20526;-76
2023/09/16 07:59:46;;;;;;;7.18;5.05;;;;;;;28.73;42.13;101232.16;5068318;28;20024;-77
2023/09/16 08:02:12;;;;;;;6.13;5.53;;;;;;;28.19;41.93;101229.97;5071848;28;20324;-77
2023/09/16 08:04:37;;;;;;;6.07;5.57;;;;;;;28.67;41.29;101234.25;5068820;28;20067;-77
2023/09/16 08:07:03;;;;;;;5.53;4.13;;;;;;;29.88;39.65;101226.31;5068077;28;20058;-76
2023/09/16 08:09:28;;;;;;;5.75;5.25;;;;;;;30.33;38.10;101222.56;5068310;28;20040;-77
2023/09/16 08:11:54;;;;;;;6.50;5.38;;;;;;;29.15;40.25;101232.84;5072057;28;20039;-76
2023/09/16 08:14:19;;;;;;;6.10;5.50;;;;;;;27.94;42.79;101240.38;5066362;28;20422;-76
2023/09/16 08:16:45;;;;;;;6.50;5.90;;;;;;;26.49;46.98;101228.78;5072776;28;20017;-75
2023/09/16 08:19:12;;;;;;;6.28;5.70;;;;;;;25.32;50.60;101226.09;5045171;28;20086;-76
2023/09/16 08:21:37;;;;;;;6.95;6.35;;;;;;;25.07;51.12;101230.69;5072599;28;20040;-76
2023/09/16 08:24:03;;;;;;;7.05;6.25;;;;;;;24.58;54.03;101233.16;5072253;28;20086;-75
2023/09/16 08:26:29;;;;;;;7.15;6.07;;;;;;;24.58;53.69;101235.09;5072924;28;20086;-75
2023/09/16 08:28:54;;;;;;;6.75;6.10;;;;;;;24.81;52.98;101233.63;5072298;28;20023;-75
2023/09/16 08:31:20;;;;;;;6.72;6.13;;;;;;;25.04;53.45;101236.78;5065281;28;20033;-74
2023/09/16 08:33:45;;;;;;;7.47;6.68;;;;;;;26.13;50.16;101245.78;5055006;28;22036;-74
2023/09/16 08:36:10;;;;;;;9.32;6.03;;;;;;;26.96;46.69;101242.00;5072731;28;20032;-74
2023/09/16 08:38:37;;;;;;;9.43;6.53;;;;;;;26.35;47.93;101241.69;5068731;28;20040;-74
2023/09/16 08:41:47;;;;;;;6.47;5.88;;;;;;;26.53;47.65;101242.84;5071493;28;20124;-74
2023/09/16 08:44:16;;;;;;;8.98;5.00;;;;;;;28.13;43.79;101242.28;5065072;22;20533;-74
2023/09/16 08:46:43;;;;;;;5.88;5.28;;;;;;;28.07;43.19;101251.75;5014208;28;20083;-74
2023/09/16 08:49:09;;;;;;;7.20;5.30;;;;;;;28.46;43.35;101250.47;5014818;28;20105;-76
2023/09/16 08:51:35;;;;;;;5.97;5.38;;;;;;;29.54;39.99;101255.53;5011421;28;20639;-76
2023/09/16 08:54:01;;;;;;;5.95;4.60;;;;;;;30.38;38.28;101250.19;5012169;28;20048;-74
2023/09/16 08:56:27;;;;;;;4.95;4.25;;;;;;;31.49;36.57;101252.88;5031504;28;20059;-74
2023/09/16 08:58:53;;;;;;;5.78;5.15;;;;;;;30.86;37.23;101256.03;5029276;28;20022;-76
2023/09/16 09:01:19;;;;;;;4.63;4.10;;;;;;;31.78;35.75;101256.94;5013712;28;20029;-75
2023/09/16 09:03:44;;;;;;;5.97;5.18;;;;;;;31.86;35.90;101256.09;5009041;28;20429;-74
2023/09/16 09:06:10;;;;;;;6.80;4.60;;;;;;;31.59;36.38;101246.16;5031244;28;20025;-74
2023/09/16 09:08:36;;;;;;;6.85;4.80;;;;;;;32.57;33.89;101248.19;4988362;28;20022;-74
2023/09/16 09:11:01;;;;;;;4.95;4.40;;;;;;;30.39;36.79;101246.25;5019179;28;20031;-74
2023/09/16 09:13:29;;;;;;;4.97;4.40;;;;;;;31.48;35.56;101248.47;5015843;28;20052;-74
2023/09/16 09:15:59;;;;;;;4.72;4.10;;;;;;;32.69;33.41;101253.03;5022946;28;20385;-75
2023/09/16 09:18:24;;;;;;;6.97;4.70;;;;;;;32.73;32.65;101248.44;5017965;28;20184;-75
2023/09/16 09:20:50;;;;;;;5.25;4.53;;;;;;;31.45;35.21;101244.41;5038334;28;20076;-75
2023/09/16 09:23:15;;;;;;;5.90;3.80;;;;;;;31.86;34.79;101246.94;4993866;28;20022;-75
2023/09/16 09:25:43;;;;;;;5.10;3.78;;;;;;;32.41;33.40;101250.78;5040269;28;20029;-75
2023/09/16 09:28:09;;;;;;;5.80;4.78;;;;;;;31.83;33.63;101245.63;5034973;28;20018;-75
2023/09/16 09:30:34;;;;;;;4.82;4.22;;;;;;;32.40;33.76;101259.47;5035455;28;20033;-77
2023/09/16 09:33:00;;;;;;;5.82;4.03;;;;;;;32.39;33.87;101255.88;5011717;28;21414;-77
2023/09/16 09:35:30;;;;;;;7.88;5.13;;;;;;;31.15;35.70;101252.59;5022521;28;20508;-75
2023/09/16 09:37:57;;;;;;;5.28;4.78;;;;;;;30.35;37.15;101250.84;5036665;28;20267;-75
2023/09/16 09:40:23;;;;;;;5.95;4.57;;;;;;;31.40;35.17;101249.31;5044736;28;20507;-75
2023/09/16 09:42:49;;;;;;;5.88;3.83;;;;;;;32.38;33.43;101251.44;5033806;28;20648;-75
2023/09/16 09:45:16;;;;;;;4.93;3.70;;;;;;;32.05;33.23;101250.09;5016969;28;20422;-75
2023/09/16 09:47:42;;;;;;;4.90;4.40;;;;;;;32.36;32.55;101250.97;5011857;28;20061;-75
2023/09/16 09:50:11;;;;;;;6.00;4.35;;;;;;;33.05;30.93;101256.41;5019368;28;20053;-75
2023/09/16 09:52:36;;;;;;;4.45;3.42;;;;;;;33.83;30.74;101249.22;5014719;28;20044;-75
2023/09/16 09:55:02;;;;;;;5.15;4.45;;;;;;;32.11;32.45;101244.34;5003873;28;20464;-75
2023/09/16 09:57:27;;;;;;;7.50;4.43;;;;;;;31.11;35.02;101239.66;5022784;28;20033;-76
2023/09/16 09:59:56;;;;;;;6.07;4.22;;;;;;;31.50;34.52;101242.59;5018191;28;20030;-76
2023/09/16 10:02:25;;;;;;;5.03;4.53;;;;;;;32.20;33.66;101248.72;5017442;28;20038;-76
2023/09/16 10:05:05;;;;;;;6.47;5.00;;;;;;;31.39;34.77;101236.56;5001590;28;20505;-76
2023/09/16 10:07:31;;;;;;;5.40;4.68;;;;;;;30.89;36.21;101247.00;5008469;28;20458;-76
2023/09/16 10:09:56;;;;;;;7.32;4.22;;;;;;;30.99;36.08;101243.94;5012397;28;20029;-76
2023/09/16 10:12:25;;;;;;;6.07;5.18;;;;;;;31.30;35.41;101245.72;5022160;28;20022;-76
2023/09/16 10:14:53;;;;;;;5.95;4.97;;;;;;;29.98;37.28;101238.28;4991709;28;20045;-76
2023/09/16 10:17:19;;;;;;;6.47;4.90;;;;;;;29.59;37.64;101233.19;4998536;28;20032;-76
2023/09/16 10:19:44;;;;;;;5.93;4.88;;;;;;;28.41;40.06;101245.06;5002590;28;20033;-76
2023/09/16 10:22:11;;;;;;;5.90;5.13;;;;;;;27.79;41.60;101244.28;5005662;28;20029;-75
2023/09/16 10:24:38;;;;;;;5.10;4.55;;;;;;;28.85;40.29;101243.53;5013428;28;20037;-76
2023/09/16 10:27:19;;;;;;;6.43;5.00;;;;;;;29.13;39.63;101240.66;5018079;28;20037;-75
2023/09/16 10:29:44;;;;;;;6.60;5.15;;;;;;;27.72;42.15;101243.84;5008280;28;20024;-75
2023/09/16 10:32:12;;;;;;;7.20;5.22;;;;;;;27.65;42.67;101244.25;4996782;28;20401;-75
2023/09/16 10:34:37;;;;;;;6.03;5.53;;;;;;;28.31;41.08;101243.31;5021626;28;20030;-75
2023/09/16 10:37:03;;;;;;;5.88;4.97;;;;;;;28.85;41.04;101243.53;5018386;28;20071;-75
2023/09/16 10:39:28;;;;;;;11.23;4.80;;;;;;;29.65;39.21;101233.88;5018786;28;20067;-75
2023/09/16 10:41:54;;;;;;;8.48;5.00;;;;;;;29.95;38.57;101231.41;5018471;28;20046;-75
2023/09/16 10:44:19;;;;;;;5.40;4.90;;;;;;;30.30;38.17;101231.56;4994778;28;20180;-76
2023/09/16 10:46:44;;;;;;;5.45;4.80;;;;;;;31.30;35.35;101244.91;5028374;28;20024;-75
2023/09/16 10:49:10;;;;;;;6.88;5.53;;;;;;;31.84;33.28;101240.88;5034859;28;20036;-75
2023/09/16 10:51:48;;;;;;;8.18;5.32;;;;;;;32.30;33.47;101249.56;5031533;28;20026;-75
2023/09/16 10:54:26;;;;;;;7.22;6.05;;;;;;;31.74;33.47;101245.66;5027760;28;20116;-75
2023/09/16 10:56:52;;;;;;;8.15;5.60;;;;;;;31.40;34.19;101244.56;5022383;28;20512;-75
2023/09/16 10:59:18;;;;;;;5.45;4.95;;;;;;;32.37;33.62;101235.88;5012991;28;20025;-76
2023/09/16 11:01:48;;;;;;;5.03;4.22;;;;;;;32.45;32.93;101232.25;5009368;28;20552;-75
2023/09/16 11:04:15;;;;;;;5.15;4.68;;;;;;;32.50;32.40;101234.81;5028855;28;20033;-75
2023/09/16 11:06:40;;;;;;;5.47;4.22;;;;;;;32.21;32.67;101232.84;5015705;28;20112;-76
2023/09/16 11:09:06;;;;;;;5.85;3.90;;;;;;;32.37;32.82;101233.09;5027917;28;20481;-76
2023/09/16 11:11:32;;;;;;;5.63;4.90;;;;;;;31.65;33.88;101224.53;5024550;28;20029;-76
2023/09/16 11:14:01;;;;;;;5.75;4.70;;;;;;;31.73;33.63;101229.28;5019730;28;20030;-76
2023/09/16 11:16:27;;;;;;;6.03;4.20;;;;;;;31.96;33.45;101229.00;5016889;28;20025;-76
2023/09/16 11:18:52;;;;;;;5.45;4.70;;;;;;;31.57;34.00;101229.81;5042008;28;21616;-76
2023/09/16 11:21:19;;;;;;;7.78;4.70;;;;;;;31.26;35.36;101216.94;5035903;28;20032;-76